Time;durP1;ratioP1;P1;durP2;ratioP2;P2;SDS_P1;SDS_P2;PMS_P1;PMS_P2;Temp;Humidity;BMP_temperature;BMP_pressure;BME280_temperature;BME280_humidity;BME280_pressure;Samples;Min_cycle;Max_cycle;Signal;HPM_P1;HPM_P2
2022/01/18 00:03:30;;;;;;;21.4;38.1;;;;;;;-0.5;78.9;99700;;;;
2022/01/18 00:14:41;;;;;;;18.3;27;;;;;;;-0.5;78.9;99710;;;;
2022/01/18 00:24:30;;;;;;;18.3;27;;;;;;;-0.5;79.1;99720;;;;
2022/01/18 00:34:35;;;;;;;18.3;27;;;;;;;-0.5;79;99730;;;;
2022/01/18 00:45:30;;;;;;;14.2;24.7;;;;;;;-0.5;78.9;99750;;;;
2022/01/18 00:56:31;;;;;;;14.2;24.7;;;;;;;-0.6;79;99770;;;;
2022/01/18 01:07:30;;;;;;;14.2;24.7;;;;;;;-0.6;78.6;99780;;;;
2022/01/18 01:17:40;;;;;;;13.1;20.4;;;;;;;-0.7;78.8;99790;;;;
2022/01/18 01:49:30;;;;;;;11.8;20.9;;;;;;;-0.7;78.9;99790;;;;
2022/01/18 02:00:30;;;;;;;11.8;20.9;;;;;;;-1;78.8;99790;;;;
2022/01/18 02:11:30;;;;;;;11.8;20.9;;;;;;;-1.3;79.1;99780;;;;
2022/01/18 02:22:31;;;;;;;11.7;19.7;;;;;;;-1.4;79.7;99800;;;;
2022/01/18 02:33:30;;;;;;;11.7;19.7;;;;;;;-1.6;79.9;99790;;;;
2022/01/18 02:44:30;;;;;;;12.1;20;;;;;;;-1.7;80.2;99780;;;;
2022/01/18 02:54:30;;;;;;;12.1;20;;;;;;;-1.7;80.5;99800;;;;
2022/01/18 03:05:30;;;;;;;12.1;20;;;;;;;-1.6;80.6;99820;;;;
2022/01/18 03:15:30;;;;;;;11.5;18.8;;;;;;;-1.4;80.6;99820;;;;
2022/01/18 03:25:40;;;;;;;11.5;18.8;;;;;;;-1.2;80.3;99820;;;;
2022/01/18 03:36:30;;;;;;;11.5;18.8;;;;;;;-1.1;80.1;99830;;;;
2022/01/18 03:46:31;;;;;;;11.9;17.5;;;;;;;-1;79.8;99850;;;;
2022/01/18 03:57:30;;;;;;;11.9;17.5;;;;;;;-0.9;79.8;99850;;;;
2022/01/18 04:08:30;;;;;;;11.9;17.5;;;;;;;-0.9;79.8;99850;;;;
2022/01/18 04:18:35;;;;;;;10.7;18.1;;;;;;;-0.8;79.6;99860;;;;
2022/01/18 04:28:36;;;;;;;10.7;18.1;;;;;;;-0.7;79.7;99860;;;;
2022/01/18 04:39:36;;;;;;;10.7;18.1;;;;;;;-0.6;79.2;99870;;;;
2022/01/18 04:50:30;;;;;;;11.1;16.8;;;;;;;-0.5;79.3;99890;;;;
2022/01/18 05:00:30;;;;;;;11.1;16.8;;;;;;;-0.5;79.3;99900;;;;
2022/01/18 05:10:30;;;;;;;11.1;16.8;;;;;;;-0.5;79.3;99900;;;;
2022/01/18 05:20:54;;;;;;;11.8;21.4;;;;;;;-0.5;79.6;99910;;;;
2022/01/18 05:30:30;;;;;;;11.8;21.4;;;;;;;-0.4;79.3;99920;;;;
2022/01/18 05:40:30;;;;;;;11.8;21.4;;;;;;;-0.5;79.2;99930;;;;
2022/01/18 05:51:30;;;;;;;10.8;19;;;;;;;-0.5;79;99950;;;;
2022/01/18 06:01:34;;;;;;;10.8;19;;;;;;;-0.5;78.9;99950;;;;
2022/01/18 06:11:30;;;;;;;10.8;19;;;;;;;-0.5;79.1;99960;;;;
2022/01/18 06:22:30;;;;;;;11;16.1;;;;;;;-0.4;79.3;99960;;;;
2022/01/18 06:32:30;;;;;;;11;16.1;;;;;;;-0.5;79.2;99950;;;;
2022/01/18 06:42:30;;;;;;;12.5;21.4;;;;;;;-0.5;79.3;99960;;;;
2022/01/18 06:52:30;;;;;;;12.5;21.4;;;;;;;-0.5;79.5;100000;;;;
2022/01/18 07:03:30;;;;;;;12.5;21.4;;;;;;;-0.3;79.1;100020;;;;
2022/01/18 07:13:30;;;;;;;12.7;18.8;;;;;;;-0.2;79.1;100030;;;;
2022/01/18 07:24:40;;;;;;;12.7;18.8;;;;;;;-0.1;78.5;100060;;;;
2022/01/18 07:34:32;;;;;;;12.7;18.8;;;;;;;0.1;78;100060;;;;
2022/01/18 07:45:30;;;;;;;10.7;15.1;;;;;;;0.1;77.4;100090;;;;
2022/01/18 07:56:30;;;;;;;10.7;15.1;;;;;;;0.1;76.8;100100;;;;
2022/01/18 08:07:30;;;;;;;10.7;15.1;;;;;;;0.2;76.2;100090;;;;
2022/01/18 08:18:30;;;;;;;11.2;16.1;;;;;;;0.2;76.1;100110;;;;
2022/01/18 08:29:30;;;;;;;11.2;16.1;;;;;;;0.1;76.1;100120;;;;
2022/01/18 08:39:08;;;;;;;11.2;16.1;;;;;;;0.4;75.7;100150;;;;
2022/01/18 08:49:08;;;;;;;15.1;21.8;;;;;;;0.5;75.6;100160;;;;
2022/01/18 08:59:08;;;;;;;15.1;21.8;;;;;;;0.7;75.1;100160;;;;
2022/01/18 09:10:11;;;;;;;15.1;21.8;;;;;;;0.8;74.9;100200;;;;
2022/01/18 09:20:08;;;;;;;16.5;23.5;;;;;;;1;74;100230;;;;
2022/01/18 09:30:08;;;;;;;16.5;23.5;;;;;;;1.2;73.8;100230;;;;
2022/01/18 09:41:10;;;;;;;9.7;15.8;;;;;;;1.4;74;100230;;;;
2022/01/18 09:51:09;;;;;;;9.7;15.8;;;;;;;1.4;74.4;100240;;;;
2022/01/18 10:02:10;;;;;;;9.7;15.8;;;;;;;1.2;75;100230;;;;
2022/01/18 10:12:10;;;;;;;8.9;16.2;;;;;;;1.4;75.1;100240;;;;
2022/01/18 10:23:08;;;;;;;8.9;16.2;;;;;;;1.6;75;100250;;;;
2022/01/18 10:33:11;;;;;;;8.9;16.2;;;;;;;1.8;74.7;100260;;;;
2022/01/18 10:43:09;;;;;;;9.4;14.8;;;;;;;1.7;74.9;100270;;;;
2022/01/18 10:53:09;;;;;;;9.4;14.8;;;;;;;1.7;74.9;100280;;;;
2022/01/18 11:04:08;;;;;;;9.4;14.8;;;;;;;2.3;74.6;100270;;;;
2022/01/18 11:14:09;;;;;;;9.5;15.8;;;;;;;2.3;73;100280;;;;
2022/01/18 11:25:08;;;;;;;9.5;15.8;;;;;;;2.1;72.9;100300;;;;
2022/01/18 11:36:08;;;;;;;9.5;15.8;;;;;;;2;72.5;100290;;;;
2022/01/18 11:46:08;;;;;;;10.4;15.1;;;;;;;2;72.2;100300;;;;
2022/01/18 11:56:11;;;;;;;10.4;15.1;;;;;;;2.2;71.8;100280;;;;
2022/01/18 12:07:08;;;;;;;10.4;15.1;;;;;;;2.5;70.8;100290;;;;
2022/01/18 12:18:08;;;;;;;10.7;17.4;;;;;;;2.3;71.3;100320;;;;
2022/01/18 12:29:21;;;;;;;10.7;17.4;;;;;;;2.2;70.1;100330;;;;
2022/01/18 12:39:08;;;;;;;10.7;17.4;;;;;;;2.3;69.5;100340;;;;
2022/01/18 12:50:08;;;;;;;10;13.4;;;;;;;2.2;70.9;100340;;;;
2022/01/18 13:00:08;;;;;;;10;13.4;;;;;;;2.2;70.9;100350;;;;
2022/01/18 13:10:08;;;;;;;10;13.4;;;;;;;2.1;70.7;100360;;;;
2022/01/18 13:31:08;;;;;;;10.3;14.6;;;;;;;1.6;71.4;100360;;;;
2022/01/18 13:41:08;;;;;;;11.8;14.8;;;;;;;1.6;71.7;100360;;;;
2022/01/18 13:51:08;;;;;;;11.8;14.8;;;;;;;1.6;72.1;100370;;;;
2022/01/18 14:02:08;;;;;;;11.8;14.8;;;;;;;1.3;71.9;100390;;;;
2022/01/18 14:12:08;;;;;;;13.3;17.4;;;;;;;1.2;71.5;100400;;;;
2022/01/18 14:22:08;;;;;;;13.3;17.4;;;;;;;1.1;72.9;100400;;;;
2022/01/18 14:32:08;;;;;;;13.3;17.4;;;;;;;0.8;73;100410;;;;
2022/01/18 14:43:12;;;;;;;15.7;22.2;;;;;;;0.5;73.9;100410;;;;
2022/01/18 14:54:08;;;;;;;15.7;22.2;;;;;;;0.4;75;100430;;;;
2022/01/18 15:04:11;;;;;;;15.7;22.2;;;;;;;0.3;75.6;100450;;;;
2022/01/18 15:15:08;;;;;;;15;18.5;;;;;;;0.4;75.9;100460;;;;
2022/01/18 15:26:08;;;;;;;15;18.5;;;;;;;0.5;75.3;100460;;;;
2022/01/18 15:37:08;;;;;;;15;18.5;;;;;;;0.4;74.7;100460;;;;
2022/01/18 15:47:09;;;;;;;17.4;27.8;;;;;;;0.4;74.9;100470;;;;
2022/01/18 15:58:08;;;;;;;17.4;27.8;;;;;;;0.4;74.7;100460;;;;
2022/01/18 16:08:08;;;;;;;17.4;27.8;;;;;;;0.4;74.6;100460;;;;
2022/01/18 16:19:11;;;;;;;24;37.8;;;;;;;0.4;74.8;100480;;;;
2022/01/18 16:29:08;;;;;;;24;37.8;;;;;;;0.3;73.7;100500;;;;
2022/01/18 16:39:08;;;;;;;24;37.8;;;;;;;0.3;74;100510;;;;
2022/01/18 16:49:09;;;;;;;22;29.6;;;;;;;0.3;73.6;100500;;;;
2022/01/18 16:59:08;;;;;;;22;29.6;;;;;;;0.4;74;100500;;;;
2022/01/18 17:10:08;;;;;;;19.3;25.6;;;;;;;0.3;73;100510;;;;
2022/01/18 17:20:08;;;;;;;19.3;25.6;;;;;;;0.3;73.1;100520;;;;
2022/01/18 17:30:08;;;;;;;19.3;25.6;;;;;;;0.3;73.1;100520;;;;
2022/01/18 17:41:11;;;;;;;14;18.3;;;;;;;0.2;72.6;100500;;;;
2022/01/18 17:52:08;;;;;;;14;18.3;;;;;;;0.2;72.8;100510;;;;
2022/01/18 18:03:08;;;;;;;14;18.3;;;;;;;0.4;74.2;100520;;;;
2022/01/18 18:13:08;;;;;;;20.7;28.5;;;;;;;0.4;74.1;100510;;;;
2022/01/18 18:24:11;;;;;;;20.7;28.5;;;;;;;0.4;74.3;100520;;;;
2022/01/18 18:35:08;;;;;;;20.7;28.5;;;;;;;0.4;74.5;100510;;;;
2022/01/18 18:45:08;;;;;;;26.3;36.2;;;;;;;0.4;74.7;100510;;;;
2022/01/18 18:55:08;;;;;;;26.3;36.2;;;;;;;0.4;75.1;100480;;;;
2022/01/18 19:05:08;;;;;;;26.3;36.2;;;;;;;0.4;75.8;100500;;;;
2022/01/18 19:16:08;;;;;;;35.6;40.6;;;;;;;0.4;75.3;100540;;;;
2022/01/18 19:27:08;;;;;;;35.6;40.6;;;;;;;0.3;75.4;100540;;;;
2022/01/18 19:37:08;;;;;;;35.6;40.6;;;;;;;0.3;75;100530;;;;
2022/01/18 19:48:08;;;;;;;34.4;46.5;;;;;;;0.3;74;100540;;;;
2022/01/18 19:58:09;;;;;;;34.4;46.5;;;;;;;0.3;74;100540;;;;
2022/01/18 20:09:12;;;;;;;25.2;32.9;;;;;;;0.3;73.9;100560;;;;
2022/01/18 20:19:08;;;;;;;25.2;32.9;;;;;;;0.3;74.1;100560;;;;
2022/01/18 20:30:08;;;;;;;25.2;32.9;;;;;;;0.3;74.2;100530;;;;
2022/01/18 20:40:13;;;;;;;28.8;38.9;;;;;;;0.3;74.5;100510;;;;
2022/01/18 20:51:08;;;;;;;28.8;38.9;;;;;;;0.3;75;100520;;;;
2022/01/18 21:01:09;;;;;;;28.8;38.9;;;;;;;0.3;75.5;100530;;;;
2022/01/18 21:11:09;;;;;;;33.8;47;;;;;;;0.2;75.4;100510;;;;
2022/01/18 21:22:08;;;;;;;33.8;47;;;;;;;0.2;75.2;100510;;;;
2022/01/18 21:32:08;;;;;;;33.8;47;;;;;;;0.1;74.8;100520;;;;
2022/01/18 21:43:09;;;;;;;29.6;38.6;;;;;;;0.1;74.6;100520;;;;
2022/01/18 21:53:08;;;;;;;29.6;38.6;;;;;;;0.1;74.7;100520;;;;
2022/01/18 22:03:08;;;;;;;29.6;38.6;;;;;;;0;73.7;100540;;;;
2022/01/18 22:13:08;;;;;;;30.9;42.1;;;;;;;-0.1;74.6;100520;;;;
2022/01/18 22:23:08;;;;;;;30.9;42.1;;;;;;;-0.1;74.5;100530;;;;
2022/01/18 22:34:08;;;;;;;30.9;42.1;;;;;;;-0.2;74.6;100510;;;;
2022/01/18 22:45:08;;;;;;;28.1;38.8;;;;;;;-0.3;74.6;100500;;;;
2022/01/18 22:55:08;;;;;;;28.1;38.8;;;;;;;-0.4;75.1;100480;;;;
2022/01/18 23:06:09;;;;;;;28.1;38.8;;;;;;;-0.5;75.1;100480;;;;
2022/01/18 23:16:08;;;;;;;24.2;34.6;;;;;;;-0.4;75.6;100480;;;;
2022/01/18 23:26:08;;;;;;;24.2;34.6;;;;;;;-0.4;75.5;100470;;;;
2022/01/18 23:36:09;;;;;;;24.2;34.6;;;;;;;-0.3;75.8;100460;;;;
2022/01/18 23:47:08;;;;;;;21.3;29.8;;;;;;;-0.2;75.7;100460;;;;
2022/01/18 23:57:08;;;;;;;21.3;29.8;;;;;;;-0.2;75.7;100440;;;;
